PWSweather.com
Personal Weather Stations
Station Observations
SHAHALMS1
Eftra, Falkenberg, HA

EftraFalkenberg, HA

Lat: 56.85, Lon: 12.65

Elevation: 140

Station Type:

http://hem.passagen.se/risarp101

High Low Average
Temperature 80.8°F27.1°C 58.5°F14.7°C 69.8°F21.0°C
Dew Point 61.0°F16.1°C 54.0°F12.2°C 57.5°F14.2°C
Winds 6.0 mph 9.7 kmh Calm Calm 2.0 mph SW3.2 kmh SW
Wind Gusts 12.5 mph20.1 kmh -- 4.0 mph6.4 kmh
Humidity 85% 47% 67%
Pressure 30.18 in1022.0 mb 30.07 in1018.3 mb -
Precipitation 0.00 in0.0 mm - -
Hour Temp Dew Point Humidity Winds Wind Gusts Pressure Precip Precip Rate Daily Precip Total
12:00 AM 62.8°F17.1°C 56.5°F13.6°C 80% 2.0 mph W3.2 kmh W 2.5 mph4.0 kmh 30.09 in1019.0 mb 0.00 in0.0 mm 0.00 in0.0 mm 0.00 in0.0 mm
12:15 AM 62.6°F17.0°C 56.3°F13.5°C 80% 2.0 mph W3.2 kmh W 2.5 mph4.0 kmh 30.09 in1019.0 mb 0.00 in0.0 mm 0.00 in0.0 mm 0.00 in0.0 mm
12:30 AM 62.2°F16.8°C 56.3°F13.5°C 81% 2.0 mph W3.2 kmh W 2.5 mph4.0 kmh 30.07 in1018.3 mb 0.00 in0.0 mm 0.00 in0.0 mm 0.00 in0.0 mm
12:45 AM 62.1°F16.7°C 56.2°F13.4°C 81% 2.0 mph W3.2 kmh W 2.5 mph4.0 kmh 30.09 in1019.0 mb 0.00 in0.0 mm 0.00 in0.0 mm 0.00 in0.0 mm
01:00 AM 61.9°F16.6°C 56.3°F13.5°C 82% 2.0 mph W3.2 kmh W 2.5 mph4.0 kmh 30.09 in1019.0 mb 0.00 in0.0 mm 0.00 in0.0 mm 0.00 in0.0 mm
01:15 AM 61.7°F16.5°C 56.5°F13.6°C 83% 2.0 mph W3.2 kmh W 2.5 mph4.0 kmh 30.09 in1019.0 mb 0.00 in0.0 mm 0.00 in0.0 mm 0.00 in0.0 mm
01:30 AM 61.5°F16.4°C 56.3°F13.5°C 83% 2.0 mph W3.2 kmh W 2.5 mph4.0 kmh 30.09 in1019.0 mb 0.00 in0.0 mm 0.00 in0.0 mm 0.00 in0.0 mm
01:45 AM 61.3°F16.3°C 56.1°F13.4°C 83% 2.0 mph W3.2 kmh W 2.5 mph4.0 kmh 30.07 in1018.3 mb 0.00 in0.0 mm 0.00 in0.0 mm 0.00 in0.0 mm
02:00 AM 61.2°F16.2°C 56.0°F13.3°C 83% 2.0 mph W3.2 kmh W 2.5 mph4.0 kmh 30.09 in1019.0 mb 0.00 in0.0 mm 0.00 in0.0 mm 0.00 in0.0 mm
02:15 AM 60.8°F16.0°C 55.9°F13.3°C 84% 2.0 mph W3.2 kmh W 2.5 mph4.0 kmh 30.09 in1019.0 mb 0.00 in0.0 mm 0.00 in0.0 mm 0.00 in0.0 mm
02:30 AM 60.4°F15.8°C 55.6°F13.1°C 84% 2.0 mph W3.2 kmh W 2.5 mph4.0 kmh 30.09 in1019.0 mb 0.00 in0.0 mm 0.00 in0.0 mm 0.00 in0.0 mm
02:45 AM 60.3°F15.7°C 55.4°F13.0°C 84% 2.0 mph W3.2 kmh W 2.5 mph4.0 kmh 30.12 in1020.0 mb 0.00 in0.0 mm 0.00 in0.0 mm 0.00 in0.0 mm
03:00 AM 59.9°F15.5°C 55.1°F12.8°C 84% 2.0 mph W3.2 kmh W 2.5 mph4.0 kmh 30.09 in1019.0 mb 0.00 in0.0 mm 0.00 in0.0 mm 0.00 in0.0 mm
03:15 AM 59.7°F15.4°C 54.5°F12.5°C 83% 2.0 mph W3.2 kmh W 2.5 mph4.0 kmh 30.09 in1019.0 mb 0.00 in0.0 mm 0.00 in0.0 mm 0.00 in0.0 mm
03:30 AM 59.4°F15.2°C 54.2°F12.3°C 83% 2.0 mph W3.2 kmh W 2.5 mph4.0 kmh 30.09 in1019.0 mb 0.00 in0.0 mm 0.00 in0.0 mm 0.00 in0.0 mm
03:45 AM 58.8°F14.9°C 54.3°F12.4°C 85% 2.0 mph W3.2 kmh W 2.5 mph4.0 kmh 30.07 in1018.3 mb 0.00 in0.0 mm 0.00 in0.0 mm 0.00 in0.0 mm
04:00 AM 58.6°F14.8°C 54.1°F12.3°C 85% 2.0 mph W3.2 kmh W 2.5 mph4.0 kmh 30.07 in1018.3 mb 0.00 in0.0 mm 0.00 in0.0 mm 0.00 in0.0 mm
04:15 AM 58.5°F14.7°C 54.0°F12.2°C 85% 2.0 mph W3.2 kmh W 2.5 mph4.0 kmh 30.09 in1019.0 mb 0.00 in0.0 mm 0.00 in0.0 mm 0.00 in0.0 mm
04:30 AM 58.6°F14.8°C 54.1°F12.3°C 85% 2.0 mph W3.2 kmh W 2.5 mph4.0 kmh 30.07 in1018.3 mb 0.00 in0.0 mm 0.00 in0.0 mm 0.00 in0.0 mm
04:45 AM 59.0°F15.0°C 54.5°F12.5°C 85% 2.0 mph W3.2 kmh W 2.5 mph4.0 kmh 30.07 in1018.3 mb 0.00 in0.0 mm 0.00 in0.0 mm 0.00 in0.0 mm
05:00 AM 59.2°F15.1°C 54.7°F12.6°C 85% 2.0 mph W3.2 kmh W 2.5 mph4.0 kmh 30.09 in1019.0 mb 0.00 in0.0 mm 0.00 in0.0 mm 0.00 in0.0 mm
05:15 AM 59.5°F15.3°C 55.0°F12.8°C 85% 2.0 mph W3.2 kmh W 2.5 mph4.0 kmh 30.07 in1018.3 mb 0.00 in0.0 mm 0.00 in0.0 mm 0.00 in0.0 mm
05:30 AM 59.9°F15.5°C 55.4°F13.0°C 85% 2.0 mph W3.2 kmh W 2.5 mph4.0 kmh 30.07 in1018.3 mb 0.00 in0.0 mm 0.00 in0.0 mm 0.00 in0.0 mm
05:45 AM 60.3°F15.7°C 55.7°F13.2°C 85% 2.0 mph W3.2 kmh W 2.5 mph4.0 kmh 30.09 in1019.0 mb 0.00 in0.0 mm 0.00 in0.0 mm 0.00 in0.0 mm
06:00 AM 60.8°F16.0°C 55.9°F13.3°C 84% 2.0 mph W3.2 kmh W 2.5 mph4.0 kmh 30.09 in1019.0 mb 0.00 in0.0 mm 0.00 in0.0 mm 0.00 in0.0 mm
06:15 AM 61.7°F16.5°C 56.5°F13.6°C 83% 2.0 mph W3.2 kmh W 2.5 mph4.0 kmh 30.09 in1019.0 mb 0.00 in0.0 mm 0.00 in0.0 mm 0.00 in0.0 mm
06:30 AM 62.8°F17.1°C 56.5°F13.6°C 80% 2.0 mph W3.2 kmh W 2.5 mph4.0 kmh 30.07 in1018.3 mb 0.00 in0.0 mm 0.00 in0.0 mm 0.00 in0.0 mm
06:45 AM 63.9°F17.7°C 57.2°F14.0°C 79% 2.0 mph W3.2 kmh W 2.5 mph4.0 kmh 30.09 in1019.0 mb 0.00 in0.0 mm 0.00 in0.0 mm 0.00 in0.0 mm
07:00 AM 65.3°F18.5°C 58.3°F14.6°C 78% 2.0 mph W3.2 kmh W 2.5 mph4.0 kmh 30.09 in1019.0 mb 0.00 in0.0 mm 0.00 in0.0 mm 0.00 in0.0 mm
07:15 AM 68.2°F20.1°C 59.2°F15.1°C 73% 2.0 mph W3.2 kmh W 2.5 mph4.0 kmh 30.09 in1019.0 mb 0.00 in0.0 mm 0.00 in0.0 mm 0.00 in0.0 mm
07:30 AM 70.0°F21.1°C 58.9°F14.9°C 68% 2.0 mph W3.2 kmh W 2.5 mph4.0 kmh 30.12 in1020.0 mb 0.00 in0.0 mm 0.00 in0.0 mm 0.00 in0.0 mm
07:45 AM 71.2°F21.8°C 57.5°F14.2°C 62% 2.0 mph W3.2 kmh W 2.5 mph4.0 kmh 30.12 in1020.0 mb 0.00 in0.0 mm 0.00 in0.0 mm 0.00 in0.0 mm
08:00 AM 72.1°F22.3°C 56.5°F13.6°C 58% 4.4 mph NW7.1 kmh NW 5.4 mph8.7 kmh 30.12 in1020.0 mb 0.00 in0.0 mm 0.00 in0.0 mm 0.00 in0.0 mm
08:15 AM 72.5°F22.5°C 56.4°F13.6°C 57% 3.8 mph NNW6.1 kmh NNW 4.7 mph7.6 kmh 30.12 in1020.0 mb 0.00 in0.0 mm 0.00 in0.0 mm 0.00 in0.0 mm
08:30 AM 73.4°F23.0°C 57.2°F14.0°C 57% 1.7 mph NW2.7 kmh NW 5.7 mph9.2 kmh 30.15 in1021.0 mb 0.00 in0.0 mm 0.00 in0.0 mm 0.00 in0.0 mm
08:45 AM 74.5°F23.6°C 57.8°F14.3°C 56% 2.6 mph NW4.2 kmh NW 6.1 mph9.8 kmh 30.15 in1021.0 mb 0.00 in0.0 mm 0.00 in0.0 mm 0.00 in0.0 mm
09:00 AM 75.0°F23.9°C 56.7°F13.7°C 53% 0.9 mph N1.4 kmh N 5.7 mph9.2 kmh 30.15 in1021.0 mb 0.00 in0.0 mm 0.00 in0.0 mm 0.00 in0.0 mm
09:15 AM 75.7°F24.3°C 57.4°F14.1°C 53% 3.4 mph SW5.5 kmh SW 6.8 mph10.9 kmh 30.15 in1021.0 mb 0.00 in0.0 mm 0.00 in0.0 mm 0.00 in0.0 mm
09:30 AM 76.5°F24.7°C 58.1°F14.5°C 53% 3.9 mph W6.3 kmh W 10.0 mph16.1 kmh 30.15 in1021.0 mb 0.00 in0.0 mm 0.00 in0.0 mm 0.00 in0.0 mm
09:45 AM 77.0°F25.0°C 58.0°F14.4°C 52% 3.8 mph W6.1 kmh W 8.6 mph13.8 kmh 30.15 in1021.0 mb 0.00 in0.0 mm 0.00 in0.0 mm 0.00 in0.0 mm
10:00 AM 76.5°F24.7°C 58.1°F14.5°C 53% 2.9 mph W4.7 kmh W 7.9 mph12.7 kmh 30.15 in1021.0 mb 0.00 in0.0 mm 0.00 in0.0 mm 0.00 in0.0 mm
10:15 AM 76.5°F24.7°C 58.6°F14.8°C 54% 2.8 mph NNW4.5 kmh NNW 5.7 mph9.2 kmh 30.18 in1022.0 mb 0.00 in0.0 mm 0.00 in0.0 mm 0.00 in0.0 mm
10:30 AM 76.3°F24.6°C 57.9°F14.4°C 53% 3.7 mph W6.0 kmh W 5.4 mph8.7 kmh 30.15 in1021.0 mb 0.00 in0.0 mm 0.00 in0.0 mm 0.00 in0.0 mm
10:45 AM 76.8°F24.9°C 57.9°F14.4°C 52% 2.0 mph W3.2 kmh W 2.5 mph4.0 kmh 30.12 in1020.0 mb 0.00 in0.0 mm 0.00 in0.0 mm 0.00 in0.0 mm
11:00 AM 77.2°F25.1°C 57.1°F13.9°C 50% 4.0 mph W6.4 kmh W 6.8 mph10.9 kmh 30.15 in1021.0 mb 0.00 in0.0 mm 0.00 in0.0 mm 0.00 in0.0 mm
11:15 AM 77.5°F25.3°C 57.4°F14.1°C 50% 3.7 mph W6.0 kmh W 10.0 mph16.1 kmh 30.12 in1020.0 mb 0.00 in0.0 mm 0.00 in0.0 mm 0.00 in0.0 mm
11:30 AM 77.4°F25.2°C 55.6°F13.1°C 47% 4.2 mph WNW6.8 kmh WNW 12.5 mph20.1 kmh 30.15 in1021.0 mb 0.00 in0.0 mm 0.00 in0.0 mm 0.00 in0.0 mm
11:45 AM 77.4°F25.2°C 56.1°F13.4°C 48% 4.1 mph WNW6.6 kmh WNW 12.2 mph19.6 kmh 30.12 in1020.0 mb 0.00 in0.0 mm 0.00 in0.0 mm 0.00 in0.0 mm
12:00 PM 77.7°F25.4°C 55.9°F13.3°C 47% 4.2 mph WNW6.8 kmh WNW 12.2 mph19.6 kmh 30.12 in1020.0 mb 0.00 in0.0 mm 0.00 in0.0 mm 0.00 in0.0 mm
12:15 PM 78.3°F25.7°C 56.4°F13.6°C 47% 4.2 mph NW6.8 kmh NW 8.9 mph14.3 kmh 30.15 in1021.0 mb 0.00 in0.0 mm 0.00 in0.0 mm 0.00 in0.0 mm
12:30 PM 78.1°F25.6°C 56.8°F13.8°C 48% 4.8 mph S7.7 kmh S 6.1 mph9.8 kmh 30.15 in1021.0 mb 0.00 in0.0 mm 0.00 in0.0 mm 0.00 in0.0 mm
12:45 PM 78.4°F25.8°C 58.3°F14.6°C 50% 6.0 mph NW9.7 kmh NW 7.5 mph12.1 kmh 30.15 in1021.0 mb 0.00 in0.0 mm 0.00 in0.0 mm 0.00 in0.0 mm
01:00 PM 78.6°F25.9°C 58.4°F14.7°C 50% 4.4 mph SW7.1 kmh SW 7.5 mph12.1 kmh 30.15 in1021.0 mb 0.00 in0.0 mm 0.00 in0.0 mm 0.00 in0.0 mm
01:15 PM 79.3°F26.3°C 59.6°F15.3°C 51% 3.2 mph WNW5.1 kmh WNW 5.4 mph8.7 kmh 30.15 in1021.0 mb 0.00 in0.0 mm 0.00 in0.0 mm 0.00 in0.0 mm
01:30 PM 79.2°F26.2°C 60.0°F15.6°C 52% 1.7 mph NW2.7 kmh NW 5.4 mph8.7 kmh 30.15 in1021.0 mb 0.00 in0.0 mm 0.00 in0.0 mm 0.00 in0.0 mm
01:45 PM 79.5°F26.4°C 60.4°F15.8°C 52% 5.3 mph W8.5 kmh W 10.4 mph16.7 kmh 30.15 in1021.0 mb 0.00 in0.0 mm 0.00 in0.0 mm 0.00 in0.0 mm
02:00 PM 79.9°F26.6°C 60.7°F15.9°C 52% 3.8 mph WNW6.1 kmh WNW 8.6 mph13.8 kmh 30.15 in1021.0 mb 0.00 in0.0 mm 0.00 in0.0 mm 0.00 in0.0 mm
02:15 PM 80.1°F26.7°C 60.3°F15.7°C 51% 4.1 mph WNW6.6 kmh WNW 10.4 mph16.7 kmh 30.15 in1021.0 mb 0.00 in0.0 mm 0.00 in0.0 mm 0.00 in0.0 mm
02:30 PM 80.2°F26.8°C 60.5°F15.8°C 51% 4.8 mph W7.7 kmh W 9.3 mph15.0 kmh 30.15 in1021.0 mb 0.00 in0.0 mm 0.00 in0.0 mm 0.00 in0.0 mm
02:45 PM 80.2°F26.8°C 61.0°F16.1°C 52% 4.4 mph W7.1 kmh W 12.2 mph19.6 kmh 30.15 in1021.0 mb 0.00 in0.0 mm 0.00 in0.0 mm 0.00 in0.0 mm
03:00 PM 80.6°F27.0°C 59.7°F15.4°C 49% 4.8 mph W7.7 kmh W 11.8 mph19.0 kmh 30.15 in1021.0 mb 0.00 in0.0 mm 0.00 in0.0 mm 0.00 in0.0 mm
03:15 PM 80.8°F27.1°C 59.8°F15.4°C 49% 3.9 mph WNW6.3 kmh WNW 10.4 mph16.7 kmh 30.15 in1021.0 mb 0.00 in0.0 mm 0.00 in0.0 mm 0.00 in0.0 mm
03:30 PM 80.8°F27.1°C 60.4°F15.8°C 50% 2.7 mph WNW4.3 kmh WNW 7.9 mph12.7 kmh 30.12 in1020.0 mb 0.00 in0.0 mm 0.00 in0.0 mm 0.00 in0.0 mm
03:45 PM 80.6°F27.0°C 60.2°F15.7°C 50% 4.1 mph WNW6.6 kmh WNW 9.7 mph15.6 kmh 30.12 in1020.0 mb 0.00 in0.0 mm 0.00 in0.0 mm 0.00 in0.0 mm
04:00 PM 80.1°F26.7°C 60.3°F15.7°C 51% 3.8 mph W6.1 kmh W 4.7 mph7.6 kmh 30.12 in1020.0 mb 0.00 in0.0 mm 0.00 in0.0 mm 0.00 in0.0 mm
04:15 PM 79.2°F26.2°C 60.6°F15.9°C 53% 3.3 mph NW5.3 kmh NW 8.9 mph14.3 kmh 30.15 in1021.0 mb 0.00 in0.0 mm 0.00 in0.0 mm 0.00 in0.0 mm
04:30 PM 77.7°F25.4°C 59.7°F15.4°C 54% 3.3 mph NW5.3 kmh NW 9.3 mph15.0 kmh 30.15 in1021.0 mb 0.00 in0.0 mm 0.00 in0.0 mm 0.00 in0.0 mm
04:45 PM 77.0°F25.0°C 59.6°F15.3°C 55% 2.8 mph WSW4.5 kmh WSW 8.9 mph14.3 kmh 30.18 in1022.0 mb 0.00 in0.0 mm 0.00 in0.0 mm 0.00 in0.0 mm
05:00 PM 76.5°F24.7°C 60.1°F15.6°C 57% 2.7 mph W4.3 kmh W 8.9 mph14.3 kmh 30.15 in1021.0 mb 0.00 in0.0 mm 0.00 in0.0 mm 0.00 in0.0 mm
05:15 PM 75.9°F24.4°C 60.1°F15.6°C 58% 5.3 mph WNW8.5 kmh WNW 9.3 mph15.0 kmh 30.15 in1021.0 mb 0.00 in0.0 mm 0.00 in0.0 mm 0.00 in0.0 mm
05:30 PM 75.7°F24.3°C 59.9°F15.5°C 58% 3.6 mph WNW5.8 kmh WNW 10.0 mph16.1 kmh 30.15 in1021.0 mb 0.00 in0.0 mm 0.00 in0.0 mm 0.00 in0.0 mm
05:45 PM 75.6°F24.2°C 59.7°F15.4°C 58% 3.7 mph W6.0 kmh W 5.7 mph9.2 kmh 30.15 in1021.0 mb 0.00 in0.0 mm 0.00 in0.0 mm 0.00 in0.0 mm
06:00 PM 74.8°F23.8°C 59.5°F15.3°C 59% 2.4 mph NW3.9 kmh NW 3.2 mph5.1 kmh 30.15 in1021.0 mb 0.00 in0.0 mm 0.00 in0.0 mm 0.00 in0.0 mm
06:15 PM 73.9°F23.3°C 58.7°F14.8°C 59% 1.8 mph NW2.9 kmh NW 4.7 mph7.6 kmh 30.15 in1021.0 mb 0.00 in0.0 mm 0.00 in0.0 mm 0.00 in0.0 mm
06:30 PM 73.6°F23.1°C 58.8°F14.9°C 60% 0.5 mph NW0.8 kmh NW 1.4 mph2.3 kmh 30.15 in1021.0 mb 0.00 in0.0 mm 0.00 in0.0 mm 0.00 in0.0 mm
06:45 PM 73.0°F22.8°C 58.3°F14.6°C 60% Calm Calm -- 30.15 in1021.0 mb 0.00 in0.0 mm 0.00 in0.0 mm 0.00 in0.0 mm
07:00 PM 72.3°F22.4°C 58.6°F14.8°C 62% Calm Calm -- 30.15 in1021.0 mb 0.00 in0.0 mm 0.00 in0.0 mm 0.00 in0.0 mm
07:15 PM 71.8°F22.1°C 58.9°F14.9°C 64% Calm Calm -- 30.12 in1020.0 mb 0.00 in0.0 mm 0.00 in0.0 mm 0.00 in0.0 mm
07:30 PM 71.1°F21.7°C 58.3°F14.6°C 64% Calm Calm -- 30.15 in1021.0 mb 0.00 in0.0 mm 0.00 in0.0 mm 0.00 in0.0 mm
07:45 PM 70.2°F21.2°C 57.4°F14.1°C 64% Calm Calm -- 30.15 in1021.0 mb 0.00 in0.0 mm 0.00 in0.0 mm 0.00 in0.0 mm
08:00 PM 69.3°F20.7°C 57.4°F14.1°C 66% Calm Calm -- 30.15 in1021.0 mb 0.00 in0.0 mm 0.00 in0.0 mm 0.00 in0.0 mm
08:15 PM 68.2°F20.1°C 58.0°F14.4°C 70% Calm Calm -- 30.15 in1021.0 mb 0.00 in0.0 mm 0.00 in0.0 mm 0.00 in0.0 mm
08:30 PM 67.5°F19.7°C 58.1°F14.5°C 72% Calm Calm -- 30.15 in1021.0 mb 0.00 in0.0 mm 0.00 in0.0 mm 0.00 in0.0 mm
08:45 PM 66.7°F19.3°C 57.8°F14.3°C 73% Calm Calm -- 30.15 in1021.0 mb 0.00 in0.0 mm 0.00 in0.0 mm 0.00 in0.0 mm
09:00 PM 66.0°F18.9°C 57.9°F14.4°C 75% Calm Calm -- 30.15 in1021.0 mb 0.00 in0.0 mm 0.00 in0.0 mm 0.00 in0.0 mm
09:15 PM 65.5°F18.6°C 58.1°F14.5°C 77% Calm Calm -- 30.15 in1021.0 mb 0.00 in0.0 mm 0.00 in0.0 mm 0.00 in0.0 mm
09:30 PM 65.3°F18.5°C 58.3°F14.6°C 78% Calm Calm -- 30.15 in1021.0 mb 0.00 in0.0 mm 0.00 in0.0 mm 0.00 in0.0 mm
09:45 PM 65.1°F18.4°C 58.1°F14.5°C 78% Calm Calm -- 30.15 in1021.0 mb 0.00 in0.0 mm 0.00 in0.0 mm 0.00 in0.0 mm
10:00 PM 64.8°F18.2°C 58.1°F14.5°C 79% Calm Calm -- 30.15 in1021.0 mb 0.00 in0.0 mm 0.00 in0.0 mm 0.00 in0.0 mm
10:15 PM 64.6°F18.1°C 57.6°F14.2°C 78% Calm Calm -- 30.15 in1021.0 mb 0.00 in0.0 mm 0.00 in0.0 mm 0.00 in0.0 mm
10:30 PM 64.0°F17.8°C 57.4°F14.1°C 79% Calm Calm -- 30.15 in1021.0 mb 0.00 in0.0 mm 0.00 in0.0 mm 0.00 in0.0 mm
10:45 PM 63.7°F17.6°C 57.0°F13.9°C 79% Calm Calm -- 30.15 in1021.0 mb 0.00 in0.0 mm 0.00 in0.0 mm 0.00 in0.0 mm
11:00 PM 63.5°F17.5°C 56.9°F13.8°C 79% Calm Calm -- 30.15 in1021.0 mb 0.00 in0.0 mm 0.00 in0.0 mm 0.00 in0.0 mm
11:15 PM 63.1°F17.3°C 56.5°F13.6°C 79% Calm Calm -- 30.15 in1021.0 mb 0.00 in0.0 mm 0.00 in0.0 mm 0.00 in0.0 mm
11:30 PM 62.6°F17.0°C 55.6°F13.1°C 78% Calm Calm -- 30.15 in1021.0 mb 0.00 in0.0 mm 0.00 in0.0 mm 0.00 in0.0 mm
11:45 PM 62.2°F16.8°C 56.0°F13.3°C 80% Calm Calm -- 30.15 in1021.0 mb 0.00 in0.0 mm 0.00 in0.0 mm 0.00 in0.0 mm